createdAt,value
2019-02-02T00:01:52.347Z,4.03
2019-02-02T00:04:22.382Z,3.33
2019-02-02T00:07:11.553Z,4.17
2019-02-02T00:09:53.341Z,2.90
2019-02-02T00:12:34.762Z,3.37
2019-02-02T00:15:16.368Z,2.40
2019-02-02T00:17:57.984Z,3.53
2019-02-02T00:20:40.921Z,3.73
2019-02-02T00:23:22.783Z,2.10
2019-02-02T00:26:04.789Z,6.03
2019-02-02T00:28:46.619Z,5.63
2019-02-02T00:31:28.277Z,7.93
2019-02-02T00:34:10.406Z,7.40
2019-02-02T00:36:52.544Z,6.07
2019-02-02T00:39:34.097Z,5.57
2019-02-02T00:42:15.562Z,3.93
2019-02-02T00:44:57.661Z,3.30
2019-02-02T00:47:27.757Z,4.53
2019-02-02T00:53:44.239Z,4.53
2019-02-02T00:56:26.624Z,6.47
2019-02-02T00:59:08.961Z,4.83
2019-02-02T01:01:50.663Z,6.20
2019-02-02T01:04:32.711Z,3.80
2019-02-02T01:07:14.497Z,3.73
2019-02-02T01:09:55.970Z,4.53
2019-02-02T01:12:37.478Z,6.20
2019-02-02T01:15:18.921Z,3.60
2019-02-02T01:18:00.833Z,2.87
2019-02-02T01:20:43.206Z,4.50
2019-02-02T01:23:25.531Z,5.33
2019-02-02T01:25:55.608Z,4.10
2019-02-02T01:28:44.960Z,8.73
2019-02-02T01:34:34.962Z,9.00
2019-02-02T01:37:17.230Z,6.17
2019-02-02T01:39:58.634Z,6.83
2019-02-02T01:42:28.752Z,5.90
2019-02-02T01:48:11.544Z,4.97
2019-02-02T01:50:53.018Z,5.47
2019-02-02T01:53:23.076Z,5.87
2019-02-02T01:55:53.041Z,7.17
2019-02-02T01:58:35.277Z,8.20
2019-02-02T02:01:16.988Z,8.23
2019-02-02T02:03:59.220Z,5.33
2019-02-02T02:06:41.341Z,9.50
2019-02-02T02:09:22.762Z,6.47
2019-02-02T02:12:04.212Z,6.37
2019-02-02T02:14:45.696Z,4.80
2019-02-02T02:17:27.409Z,8.17
2019-02-02T02:20:08.184Z,12.10
2019-02-02T02:22:50.229Z,9.47
2019-02-02T02:25:31.951Z,10.03
2019-02-02T02:28:14.216Z,10.40
2019-02-02T02:30:55.544Z,7.67
2019-02-02T02:33:37.686Z,10.03
2019-02-02T02:36:19.988Z,10.50
2019-02-02T02:39:01.648Z,13.37
2019-02-02T02:41:43.725Z,10.53
2019-02-02T02:44:25.084Z,9.53
2019-02-02T02:47:06.760Z,8.87
2019-02-02T02:49:48.744Z,8.67
2019-02-02T02:52:30.106Z,9.77
2019-02-02T02:55:11.788Z,10.07
2019-02-02T02:57:52.105Z,6.30
2019-02-02T03:00:33.865Z,13.60
2019-02-02T03:03:15.800Z,10.13
2019-02-02T03:05:58.036Z,12.00
2019-02-02T03:08:40.324Z,6.57
2019-02-02T03:11:21.951Z,4.20
2019-02-02T03:14:03.411Z,4.27
2019-02-02T03:16:44.842Z,3.53
2019-02-02T03:19:26.471Z,3.20
2019-02-02T03:22:08.779Z,2.40
2019-02-02T03:24:50.204Z,2.57
2019-02-02T03:27:32.460Z,3.83
2019-02-02T03:30:13.830Z,5.87
2019-02-02T03:33:02.997Z,3.07
2019-02-02T03:35:44.566Z,6.03
2019-02-02T03:38:26.930Z,4.77
2019-02-02T03:41:08.341Z,8.67
2019-02-02T03:43:49.922Z,10.40
2019-02-02T03:46:31.506Z,13.20
2019-02-02T03:49:13.048Z,12.53
2019-02-02T03:51:54.460Z,10.57
2019-02-02T03:54:36.332Z,11.57
2019-02-02T03:57:18.497Z,15.50
2019-02-02T03:59:59.907Z,13.57
2019-02-02T04:02:42.237Z,14.07
2019-02-02T04:05:23.831Z,18.43
2019-02-02T04:08:05.286Z,15.83
2019-02-02T04:10:46.790Z,15.03
2019-02-02T04:13:28.505Z,20.60
2019-02-02T04:16:10.341Z,17.00
2019-02-02T04:18:55.378Z,20.00
2019-02-02T04:21:37.469Z,23.93
2019-02-02T04:24:18.872Z,18.27
2019-02-02T04:27:00.321Z,17.77
2019-02-02T04:32:44.803Z,25.87
2019-02-02T04:35:34.018Z,26.40
2019-02-02T04:38:16.188Z,25.47
2019-02-02T04:40:57.660Z,25.20
2019-02-02T04:43:39.500Z,23.97
2019-02-02T04:46:21.823Z,21.93
2019-02-02T04:49:03.359Z,22.97
2019-02-02T04:51:45.585Z,23.80
2019-02-02T04:54:26.956Z,18.23
2019-02-02T04:57:09.373Z,19.67
2019-02-02T04:59:51.757Z,23.03
2019-02-02T05:02:33.215Z,23.00
2019-02-02T05:05:15.589Z,22.20
2019-02-02T05:07:57.878Z,13.83
2019-02-02T05:10:40.110Z,18.67
2019-02-02T05:13:22.437Z,26.80
2019-02-02T05:16:03.777Z,18.70
2019-02-02T05:18:46.009Z,29.73
2019-02-02T05:21:27.459Z,26.47
2019-02-02T05:24:08.982Z,20.27
2019-02-02T05:26:51.012Z,16.70
2019-02-02T05:29:41.231Z,12.20
2019-02-02T05:32:16.242Z,15.43
2019-02-02T05:34:57.832Z,18.30
2019-02-02T05:37:40.199Z,17.27
2019-02-02T05:40:21.598Z,9.20
2019-02-02T05:43:01.829Z,11.77
2019-02-02T05:45:50.974Z,15.37
2019-02-02T05:48:32.978Z,15.73
2019-02-02T05:51:14.851Z,14.93
2019-02-02T05:53:57.045Z,14.23
2019-02-02T05:56:38.697Z,18.47
2019-02-02T05:59:20.904Z,24.60
2019-02-02T06:02:02.867Z,23.03
2019-02-02T06:04:44.570Z,26.80
2019-02-02T06:07:26.946Z,23.57
2019-02-02T06:10:09.262Z,15.10
2019-02-02T06:12:49.805Z,21.97
2019-02-02T06:18:40.145Z,12.73
2019-02-02T06:21:21.998Z,15.80
2019-02-02T06:24:03.659Z,15.43
2019-02-02T06:26:45.956Z,18.40
2019-02-02T06:29:27.360Z,13.50
2019-02-02T06:32:11.968Z,21.20
2019-02-02T06:34:53.080Z,25.30
2019-02-02T06:37:35.320Z,13.80
2019-02-02T06:40:16.757Z,13.93
2019-02-02T06:42:58.280Z,10.30
2019-02-02T06:45:39.690Z,10.60
2019-02-02T06:48:09.749Z,11.37
2019-02-02T06:54:01.612Z,4.93
2019-02-02T06:56:43.091Z,13.80
2019-02-02T06:59:25.198Z,12.00
2019-02-02T07:02:07.380Z,24.13
2019-02-02T07:04:49.495Z,11.73
2019-02-02T07:07:31.785Z,11.93
2019-02-02T07:10:13.239Z,11.97
2019-02-02T07:12:54.655Z,11.57
2019-02-02T07:15:36.391Z,12.40
2019-02-02T07:18:18.200Z,8.97
2019-02-02T07:20:59.609Z,21.47
2019-02-02T07:23:29.531Z,19.07
2019-02-02T07:26:18.851Z,13.07
2019-02-02T07:29:01.009Z,11.87
2019-02-02T07:31:42.461Z,6.90
2019-02-02T07:34:24.781Z,11.13
2019-02-02T07:37:06.156Z,9.83
2019-02-02T07:39:47.554Z,11.00
2019-02-02T07:42:29.172Z,7.40
2019-02-02T07:45:11.444Z,7.93
2019-02-02T07:47:53.649Z,10.43
2019-02-02T07:50:35.220Z,13.00
2019-02-02T07:53:17.729Z,12.40
2019-02-02T07:55:59.652Z,14.80
2019-02-02T07:58:41.171Z,9.77
2019-02-02T08:01:22.642Z,9.97
2019-02-02T08:04:05.733Z,17.20
2019-02-02T08:06:46.361Z,16.27
2019-02-02T08:09:28.531Z,12.13
2019-02-02T08:12:10.128Z,9.90
2019-02-02T08:14:51.652Z,10.93
2019-02-02T08:17:33.023Z,12.33
2019-02-02T08:20:15.496Z,10.80
2019-02-02T08:22:57.180Z,11.20
2019-02-02T08:25:39.495Z,12.20
2019-02-02T08:28:09.501Z,7.57
2019-02-02T08:30:58.664Z,5.97
2019-02-02T08:37:10.160Z,10.17
2019-02-02T08:39:52.643Z,12.00
2019-02-02T08:42:34.184Z,10.63
2019-02-02T08:45:15.550Z,9.20
2019-02-02T08:47:57.118Z,6.70
2019-02-02T08:50:38.532Z,13.07
2019-02-02T08:53:20.889Z,19.03
2019-02-02T08:56:02.352Z,14.20
2019-02-02T08:58:44.253Z,20.07
2019-02-02T09:01:25.732Z,12.17
2019-02-02T09:04:07.325Z,9.47
2019-02-02T09:06:49.088Z,7.43
2019-02-02T09:09:31.260Z,7.53
2019-02-02T09:12:11.452Z,7.23
2019-02-02T09:15:00.609Z,5.90
2019-02-02T09:17:42.548Z,6.77
2019-02-02T09:20:24.060Z,6.47
2019-02-02T09:23:06.619Z,11.83
2019-02-02T09:25:48.084Z,6.60
2019-02-02T09:28:30.628Z,7.50
2019-02-02T09:31:15.996Z,6.70
2019-02-02T09:33:56.408Z,4.40
2019-02-02T09:36:37.864Z,15.10
2019-02-02T09:39:19.360Z,18.30
2019-02-02T09:42:01.030Z,8.53
2019-02-02T09:44:42.835Z,7.03
2019-02-02T09:47:24.268Z,8.50
2019-02-02T09:50:05.733Z,16.70
2019-02-02T09:52:47.422Z,14.00
2019-02-02T09:55:28.900Z,18.33
2019-02-02T09:58:02.045Z,14.37
2019-02-02T10:00:32.720Z,24.57
2019-02-02T10:03:02.728Z,14.10
2019-02-02T10:05:32.762Z,15.17
2019-02-02T10:08:02.799Z,19.53
2019-02-02T10:10:33.969Z,11.37
2019-02-02T10:13:04.172Z,11.03
2019-02-02T10:15:34.275Z,24.53
2019-02-02T10:18:04.571Z,16.67
2019-02-02T10:20:34.531Z,8.37
2019-02-02T10:23:04.848Z,9.50
2019-02-02T10:25:35.123Z,19.20
2019-02-02T10:28:06.009Z,22.93
2019-02-02T10:30:38.177Z,19.20
2019-02-02T10:33:08.569Z,13.50
2019-02-02T10:35:38.585Z,13.90
2019-02-02T10:38:08.826Z,16.40
2019-02-02T10:40:38.945Z,13.40
2019-02-02T10:43:09.069Z,13.60
2019-02-02T10:45:40.203Z,11.07
2019-02-02T10:48:10.203Z,17.67
2019-02-02T10:50:40.267Z,27.60
2019-02-02T10:53:10.295Z,16.17
2019-02-02T10:55:40.573Z,36.50
2019-02-02T10:58:10.585Z,22.93
2019-02-02T11:00:41.149Z,27.83
2019-02-02T11:03:11.163Z,22.67
2019-02-02T11:05:41.413Z,14.00
2019-02-02T11:08:11.483Z,10.93
2019-02-02T11:10:41.569Z,21.67
2019-02-02T11:13:11.676Z,25.93
2019-02-02T11:15:41.707Z,14.67
2019-02-02T11:18:14.176Z,23.83
2019-02-02T11:20:45.010Z,30.77
2019-02-02T11:23:15.177Z,33.00
2019-02-02T11:25:45.325Z,24.10
2019-02-02T11:28:18.232Z,16.57
2019-02-02T11:30:48.396Z,16.77
2019-02-02T11:33:19.040Z,38.27
2019-02-02T11:35:49.457Z,13.93
2019-02-02T11:38:19.573Z,16.53
2019-02-02T11:40:50.000Z,22.60
2019-02-02T11:43:19.935Z,17.60
2019-02-02T11:45:50.595Z,16.30
2019-02-02T11:48:20.520Z,40.90
2019-02-02T11:50:50.672Z,19.47
2019-02-02T11:53:20.711Z,15.43
2019-02-02T11:55:50.762Z,20.30
2019-02-02T11:58:20.692Z,18.67
2019-02-02T12:00:50.828Z,19.07
2019-02-02T12:03:21.352Z,20.80
2019-02-02T12:05:52.260Z,17.03
2019-02-02T12:08:22.309Z,14.30
2019-02-02T12:10:52.715Z,14.43
2019-02-02T12:13:22.698Z,15.83
2019-02-02T12:15:52.756Z,24.47
2019-02-02T12:18:22.928Z,30.23
2019-02-02T12:20:52.991Z,15.20
2019-02-02T12:23:23.001Z,18.60
2019-02-02T12:25:53.314Z,27.07
2019-02-02T12:28:23.503Z,22.60
2019-02-02T12:30:53.753Z,15.13
2019-02-02T12:33:25.842Z,19.17
2019-02-02T12:35:55.588Z,22.77
2019-02-02T12:38:25.537Z,17.37
2019-02-02T12:40:55.612Z,14.30
2019-02-02T12:43:25.636Z,16.73
2019-02-02T12:45:55.618Z,17.63
2019-02-02T12:48:25.645Z,29.70
2019-02-02T12:50:55.727Z,27.10
2019-02-02T12:53:25.792Z,19.20
2019-02-02T12:55:55.924Z,19.83
2019-02-02T12:58:25.782Z,15.70
2019-02-02T13:00:55.904Z,14.00
2019-02-02T13:03:25.771Z,12.17
2019-02-02T13:05:55.801Z,16.40
2019-02-02T13:08:25.847Z,10.83
2019-02-02T13:10:56.037Z,8.67
2019-02-02T13:13:26.084Z,8.03
2019-02-02T13:15:56.012Z,12.10
2019-02-02T13:18:26.063Z,10.70
2019-02-02T13:20:56.067Z,13.47
2019-02-02T13:23:26.229Z,17.10
2019-02-02T13:26:04.985Z,19.77
2019-02-02T13:28:27.804Z,16.10
2019-02-02T13:30:57.753Z,21.17
2019-02-02T13:33:27.891Z,25.13
2019-02-02T13:35:57.894Z,27.57
2019-02-02T13:38:28.249Z,26.20
2019-02-02T13:40:58.384Z,28.70
2019-02-02T13:43:28.371Z,24.77
2019-02-02T13:45:58.395Z,39.50
2019-02-02T13:48:28.452Z,29.83
2019-02-02T13:50:58.388Z,26.07
2019-02-02T13:53:28.596Z,26.60
2019-02-02T13:55:58.461Z,30.87
2019-02-02T13:58:28.457Z,21.90
2019-02-02T14:00:59.296Z,22.00
2019-02-02T14:03:29.156Z,28.23
2019-02-02T14:05:59.250Z,20.23
2019-02-02T14:08:29.307Z,21.43
2019-02-02T14:10:59.330Z,27.83
2019-02-02T14:13:29.423Z,27.97
2019-02-02T14:15:59.672Z,18.83
2019-02-02T14:18:29.806Z,33.90
2019-02-02T14:21:00.076Z,19.00
2019-02-02T14:23:30.215Z,23.83
2019-02-02T14:26:00.518Z,18.10
2019-02-02T14:28:30.593Z,22.33
2019-02-02T14:31:00.766Z,16.50
2019-02-02T14:33:30.784Z,18.60
2019-02-02T14:36:01.993Z,13.13
2019-02-02T14:38:32.392Z,8.83
2019-02-02T14:41:02.832Z,20.00
2019-02-02T14:43:33.206Z,15.33
2019-02-02T14:46:03.664Z,13.13
2019-02-02T14:48:33.924Z,17.80
2019-02-02T14:51:04.235Z,12.90
2019-02-02T14:53:34.289Z,11.43
2019-02-02T14:56:04.603Z,12.53
2019-02-02T14:58:34.716Z,9.37
2019-02-02T15:01:04.868Z,17.40
2019-02-02T15:03:34.983Z,15.60
2019-02-02T15:06:05.033Z,14.57
2019-02-02T15:08:35.163Z,13.00
2019-02-02T15:11:05.172Z,18.80
2019-02-02T15:13:35.243Z,14.57
2019-02-02T15:16:05.244Z,10.17
2019-02-02T15:18:35.285Z,8.93
2019-02-02T15:21:05.610Z,15.43
2019-02-02T15:23:35.819Z,11.03
2019-02-02T15:26:05.874Z,11.70
2019-02-02T15:28:36.031Z,13.57
2019-02-02T15:31:06.149Z,20.83
2019-02-02T15:33:37.970Z,12.57
2019-02-02T15:36:08.424Z,8.37
2019-02-02T15:38:38.602Z,13.50
2019-02-02T15:41:08.629Z,12.43
2019-02-02T15:43:38.665Z,12.43
2019-02-02T15:46:08.539Z,15.40
2019-02-02T15:48:39.223Z,9.70
2019-02-02T15:51:09.249Z,15.90
2019-02-02T15:53:39.392Z,11.47
2019-02-02T15:56:09.840Z,12.50
2019-02-02T15:58:39.794Z,8.83
2019-02-02T16:01:09.733Z,13.70
2019-02-02T16:03:49.395Z,13.47
2019-02-02T16:06:12.064Z,9.80
2019-02-02T16:08:42.117Z,10.33
2019-02-02T16:11:12.137Z,13.93
2019-02-02T16:13:42.260Z,13.00
2019-02-02T16:16:12.527Z,12.23
2019-02-02T16:18:42.507Z,11.47
2019-02-02T16:21:12.552Z,9.57
2019-02-02T16:23:43.544Z,8.77
2019-02-02T16:26:14.144Z,10.53
2019-02-02T16:28:44.807Z,13.73
2019-02-02T16:31:15.258Z,11.67
2019-02-02T16:33:45.701Z,10.10
2019-02-02T16:36:16.028Z,10.07
2019-02-02T16:38:46.225Z,9.70
2019-02-02T16:41:16.096Z,7.77
2019-02-02T16:43:46.225Z,6.23
2019-02-02T16:46:16.236Z,9.83
2019-02-02T16:48:46.456Z,9.97
2019-02-02T16:51:16.584Z,8.90
2019-02-02T16:53:46.709Z,8.93
2019-02-02T16:56:16.928Z,8.67
2019-02-02T16:58:49.971Z,9.07
2019-02-02T17:01:20.632Z,16.87
2019-02-02T17:03:51.667Z,11.30
2019-02-02T17:06:21.852Z,16.00
2019-02-02T17:08:52.507Z,12.93
2019-02-02T17:11:23.249Z,13.00
2019-02-02T17:13:54.805Z,18.70
2019-02-02T17:16:25.420Z,15.07
2019-02-02T17:18:55.762Z,14.47
2019-02-02T17:21:28.979Z,8.40
2019-02-02T17:23:57.923Z,14.00
2019-02-02T17:26:27.974Z,15.70
2019-02-02T17:28:58.067Z,13.00
2019-02-02T17:31:28.113Z,19.40
2019-02-02T17:33:58.128Z,13.50
2019-02-02T17:36:28.262Z,10.70
2019-02-02T17:38:58.758Z,18.00
2019-02-02T17:41:28.701Z,19.27
2019-02-02T17:43:58.571Z,21.23
2019-02-02T17:46:28.717Z,19.37
2019-02-02T17:48:58.667Z,17.27
2019-02-02T17:51:28.795Z,25.27
2019-02-02T17:53:58.666Z,18.20
2019-02-02T17:56:28.738Z,22.43
2019-02-02T17:58:58.759Z,17.00
2019-02-02T18:01:28.892Z,19.27
2019-02-02T18:03:58.922Z,16.77
2019-02-02T18:06:29.113Z,20.87
2019-02-02T18:08:59.348Z,14.47
2019-02-02T18:11:29.327Z,22.33
2019-02-02T18:13:59.196Z,20.03
2019-02-02T18:16:29.271Z,20.50
2019-02-02T18:18:59.225Z,21.83
2019-02-02T18:21:29.232Z,20.30
2019-02-02T18:23:59.088Z,9.40
2019-02-02T18:26:29.233Z,10.43
2019-02-02T18:28:59.311Z,20.87
2019-02-02T18:31:29.707Z,17.53
2019-02-02T18:34:01.910Z,16.53
2019-02-02T18:36:31.567Z,16.57
2019-02-02T18:39:01.646Z,23.40
2019-02-02T18:41:31.771Z,15.77
2019-02-02T18:44:02.132Z,24.23
2019-02-02T18:46:32.273Z,17.83
2019-02-02T18:49:03.478Z,27.23
2019-02-02T18:51:35.814Z,26.37
2019-02-02T18:54:05.882Z,22.33
2019-02-02T18:56:36.000Z,17.60
2019-02-02T18:59:06.094Z,20.03
2019-02-02T19:01:36.148Z,16.43
2019-02-02T19:04:06.190Z,17.93
2019-02-02T19:06:36.260Z,20.97
2019-02-02T19:09:08.204Z,45.20
2019-02-02T19:11:38.227Z,29.20
2019-02-02T19:14:08.360Z,29.53
2019-02-02T19:16:38.543Z,22.10
2019-02-02T19:19:08.547Z,22.90
2019-02-02T19:21:38.677Z,27.93
2019-02-02T19:24:09.280Z,20.50
2019-02-02T19:26:39.429Z,35.63
2019-02-02T19:29:09.821Z,27.63
2019-02-02T19:31:39.955Z,31.87
2019-02-02T19:34:09.885Z,27.53
2019-02-02T19:36:39.931Z,22.93
2019-02-02T19:39:10.251Z,44.67
2019-02-02T19:41:40.372Z,29.13
2019-02-02T19:44:10.400Z,33.77
2019-02-02T19:46:40.384Z,25.20
2019-02-02T19:49:10.412Z,36.43
2019-02-02T19:51:40.422Z,30.47
2019-02-02T19:54:10.551Z,25.60
2019-02-02T19:56:40.697Z,27.47
2019-02-02T19:59:10.788Z,49.33
2019-02-02T20:01:40.851Z,46.17
2019-02-02T20:04:10.952Z,42.70
2019-02-02T20:06:41.027Z,39.73
2019-02-02T20:09:11.052Z,37.80
2019-02-02T20:11:41.117Z,29.87
2019-02-02T20:14:11.134Z,31.07
2019-02-02T20:16:41.172Z,30.40
2019-02-02T20:19:11.297Z,34.13
2019-02-02T20:21:44.491Z,35.10
2019-02-02T20:24:13.304Z,46.30
2019-02-02T20:26:43.370Z,38.83
2019-02-02T20:29:13.514Z,29.67
2019-02-02T20:31:43.574Z,52.57
2019-02-02T20:34:13.440Z,40.97
2019-02-02T20:36:43.573Z,30.27
2019-02-02T20:39:13.584Z,59.90
2019-02-02T20:41:43.652Z,59.57
2019-02-02T20:44:13.593Z,44.30
2019-02-02T20:46:43.732Z,37.13
2019-02-02T20:49:14.003Z,47.00
2019-02-02T20:51:44.133Z,60.30
2019-02-02T20:54:14.084Z,43.10
2019-02-02T20:56:44.554Z,36.40
2019-02-02T20:59:14.497Z,52.70
2019-02-02T21:01:44.503Z,54.90
2019-02-02T21:04:14.510Z,35.37
2019-02-02T21:06:44.601Z,41.00
2019-02-02T21:09:14.903Z,28.07
2019-02-02T21:11:56.365Z,50.57
2019-02-02T21:14:16.731Z,24.80
2019-02-02T21:16:46.778Z,71.60
2019-02-02T21:19:16.715Z,40.17
2019-02-02T21:21:46.952Z,50.90
2019-02-02T21:24:16.981Z,38.77
2019-02-02T21:26:47.015Z,42.67
2019-02-02T21:29:19.787Z,49.80
2019-02-02T21:31:48.786Z,36.70
2019-02-02T21:34:18.790Z,48.97
2019-02-02T21:36:48.760Z,49.43
2019-02-02T21:39:18.832Z,61.17
2019-02-02T21:41:48.756Z,31.97
2019-02-02T21:44:18.613Z,27.63
2019-02-02T21:46:48.777Z,33.30
2019-02-02T21:49:18.703Z,38.20
2019-02-02T21:51:48.767Z,30.73
2019-02-02T21:54:18.786Z,44.37
2019-02-02T21:56:48.880Z,45.63
2019-02-02T21:59:18.920Z,45.77
2019-02-02T22:01:48.920Z,32.77
2019-02-02T22:04:18.781Z,42.67
2019-02-02T22:06:48.847Z,51.70
2019-02-02T22:09:18.716Z,43.70
2019-02-02T22:11:48.932Z,48.47
2019-02-02T22:14:18.931Z,41.17
2019-02-02T22:16:48.864Z,48.00
2019-02-02T22:19:18.776Z,56.83
2019-02-02T22:21:48.793Z,31.80
2019-02-02T22:24:18.963Z,44.10
2019-02-02T22:26:50.993Z,46.21
2019-02-02T22:29:21.191Z,50.27
2019-02-02T22:31:51.205Z,51.60
2019-02-02T22:34:21.173Z,41.67
2019-02-02T22:36:51.358Z,34.43
2019-02-02T22:39:21.407Z,59.20
2019-02-02T22:41:51.369Z,36.47
2019-02-02T22:44:21.523Z,42.67
2019-02-02T22:46:51.544Z,40.33
2019-02-02T22:49:21.964Z,27.90
2019-02-02T22:51:51.984Z,41.97
2019-02-02T22:54:22.034Z,35.03
2019-02-02T22:56:52.115Z,31.40
2019-02-02T22:59:22.070Z,26.03
2019-02-02T23:01:57.549Z,39.10
2019-02-02T23:04:56.216Z,32.27
2019-02-02T23:07:54.279Z,28.77
2019-02-02T23:11:20.437Z,38.63
2019-02-02T23:14:25.919Z,36.70
2019-02-02T23:16:55.849Z,34.63
2019-02-02T23:19:25.843Z,30.07
2019-02-02T23:21:55.855Z,26.80
2019-02-02T23:24:25.809Z,19.37
2019-02-02T23:26:55.830Z,20.07
2019-02-02T23:29:25.877Z,25.80
2019-02-02T23:32:14.963Z,27.63
2019-02-02T23:34:57.275Z,39.73
2019-02-02T23:37:27.664Z,35.17
2019-02-02T23:40:36.297Z,28.60
2019-02-02T23:43:18.624Z,28.03
2019-02-02T23:46:00.072Z,21.13
2019-02-02T23:48:42.951Z,36.07
2019-02-02T23:51:25.448Z,22.10
2019-02-02T23:54:07.844Z,28.57
2019-02-02T23:56:49.849Z,32.43
2019-02-02T23:59:35.085Z,48.50
